Time;durP1;ratioP1;P1;durP2;ratioP2;P2;SDS_P1;SDS_P2;PMS_P1;PMS_P2;Temp;Humidity;BMP_temperature;BMP_pressure;BME280_temperature;BME280_humidity;BME280_pressure;Samples;Min_cycle;Max_cycle;Signal;HPM_P1;HPM_P2
2023/02/24 00:01:23;;;;;;;7.22;2.17;;;;;;;18.89;39.48;101520.84;5123825;27;20044;-69
2023/02/24 00:03:57;;;;;;;6.82;2.08;;;;;;;18.87;39.42;101517.44;5123739;27;20023;-67
2023/02/24 00:06:25;;;;;;;7.30;2.45;;;;;;;18.87;39.32;101509.53;5105056;27;20730;-68
2023/02/24 00:08:51;;;;;;;6.30;2.13;;;;;;;18.83;39.28;101506.25;5123585;27;20027;-68
2023/02/24 00:11:20;;;;;;;7.60;2.10;;;;;;;18.83;39.35;101515.03;5123569;27;20944;-68
2023/02/24 00:13:46;;;;;;;6.90;2.03;;;;;;;18.79;39.11;101495.06;5122181;27;20046;-68
2023/02/24 00:16:16;;;;;;;6.20;1.95;;;;;;;18.82;39.13;101496.66;5123358;27;20383;-69
2023/02/24 00:18:41;;;;;;;5.60;2.13;;;;;;;18.76;39.16;101495.31;5123542;27;20111;-67
2023/02/24 00:21:11;;;;;;;8.10;2.25;;;;;;;18.78;39.38;101498.66;5104698;27;20055;-68
2023/02/24 00:23:39;;;;;;;7.35;2.05;;;;;;;18.75;39.18;101498.06;5104593;27;20387;-68
2023/02/24 00:26:05;;;;;;;7.93;2.30;;;;;;;18.77;39.18;101501.41;5123058;27;20062;-69
2023/02/24 00:28:32;;;;;;;7.65;2.22;;;;;;;18.76;39.27;101494.47;5123400;27;20110;-67
2023/02/24 00:31:15;;;;;;;6.32;1.83;;;;;;;18.75;39.35;101496.25;5123129;27;20031;-68
2023/02/24 00:33:42;;;;;;;7.55;2.15;;;;;;;18.70;39.16;101487.84;5122498;27;20925;-68
2023/02/24 00:36:13;;;;;;;7.70;2.10;;;;;;;18.68;39.25;101490.59;5123629;27;20388;-69
2023/02/24 00:38:43;;;;;;;5.75;2.03;;;;;;;18.71;39.06;101486.03;5123512;27;20035;-68
2023/02/24 00:41:14;;;;;;;7.13;2.33;;;;;;;18.70;39.34;101484.34;5123033;27;20454;-67
2023/02/24 00:43:45;;;;;;;6.80;1.90;;;;;;;18.65;39.07;101474.97;5122729;27;20035;-68
2023/02/24 00:46:19;;;;;;;5.68;1.90;;;;;;;18.65;39.02;101477.59;5123183;27;20549;-67
2023/02/24 00:48:46;;;;;;;7.72;2.33;;;;;;;18.64;39.10;101475.06;5103567;27;20050;-67
2023/02/24 00:51:22;;;;;;;7.28;2.13;;;;;;;18.64;39.22;101475.94;5122698;27;20043;-68
2023/02/24 00:53:48;;;;;;;8.02;2.40;;;;;;;18.65;39.33;101482.06;5122396;27;20106;-68
2023/02/24 00:56:16;;;;;;;7.68;2.35;;;;;;;18.62;39.28;101469.06;5123099;27;20079;-69
2023/02/24 00:58:43;;;;;;;7.35;2.28;;;;;;;18.62;38.97;101466.44;5122586;27;20114;-69
2023/02/24 01:01:20;;;;;;;7.30;2.08;;;;;;;18.59;39.26;101464.03;5122753;27;20031;-67
2023/02/24 01:03:50;;;;;;;7.13;2.30;;;;;;;18.60;39.20;101466.56;5122842;27;20047;-68
2023/02/24 01:06:19;;;;;;;7.03;1.83;;;;;;;18.61;39.11;101464.75;5122682;27;20059;-68
2023/02/24 01:08:48;;;;;;;7.40;2.20;;;;;;;18.60;39.21;101465.72;5121915;27;20027;-69
2023/02/24 01:14:11;;;;;;;8.10;2.20;;;;;;;18.57;39.26;101453.56;5122550;27;20082;-68
2023/02/24 01:16:36;;;;;;;7.40;2.25;;;;;;;18.57;39.36;101450.94;5122262;27;20483;-67
2023/02/24 01:19:03;;;;;;;6.28;2.13;;;;;;;18.58;39.06;101441.22;5121868;27;20027;-67
2023/02/24 01:21:30;;;;;;;5.95;1.67;;;;;;;18.56;39.21;101438.69;5122346;27;20197;-67
2023/02/24 01:23:56;;;;;;;5.95;1.88;;;;;;;18.57;39.03;101440.38;5122275;27;20038;-68
2023/02/24 01:26:22;;;;;;;7.53;2.55;;;;;;;18.55;38.94;101437.00;5122128;27;20088;-68
2023/02/24 01:28:48;;;;;;;8.18;1.88;;;;;;;18.55;38.79;101437.00;5122418;27;20035;-67
2023/02/24 01:31:17;;;;;;;6.05;1.85;;;;;;;18.54;39.03;101427.41;5122178;27;20379;-67
2023/02/24 01:33:44;;;;;;;8.07;2.20;;;;;;;18.56;38.94;101428.13;5120858;27;20047;-67
2023/02/24 01:36:19;;;;;;;6.25;1.73;;;;;;;18.50;39.10;101418.03;5122528;27;20990;-68
2023/02/24 01:38:46;;;;;;;5.53;2.00;;;;;;;18.52;39.14;101416.13;5121872;27;20035;-69
2023/02/24 01:41:15;;;;;;;7.97;2.17;;;;;;;18.55;38.81;101413.25;5122066;27;20547;-68
2023/02/24 01:44:10;;;;;;;6.22;2.15;;;;;;;18.54;38.80;101408.09;5120533;27;20849;-68
2023/02/24 01:46:38;;;;;;;6.57;1.75;;;;;;;18.53;38.75;101403.75;5122125;27;20098;-67
2023/02/24 01:49:11;;;;;;;6.55;1.90;;;;;;;18.51;38.76;101401.22;5122523;28;20472;-67
2023/02/24 01:51:42;;;;;;;8.02;2.58;;;;;;;18.44;38.74;101392.09;5121872;28;20027;-67
2023/02/24 01:54:11;;;;;;;5.50;2.10;;;;;;;18.52;38.60;101396.78;5103112;28;20047;-67
2023/02/24 01:56:37;;;;;;;5.68;1.80;;;;;;;18.48;38.71;101389.13;5121615;27;20053;-67
2023/02/24 01:59:03;;;;;;;6.35;2.30;;;;;;;18.49;38.89;101390.78;5121825;28;20027;-67
2023/02/24 02:01:29;;;;;;;6.20;2.47;;;;;;;18.47;38.45;101379.50;5121650;28;20608;-67
2023/02/24 02:04:02;;;;;;;9.50;2.25;;;;;;;18.46;38.86;101379.63;5121717;27;20037;-68
2023/02/24 02:06:29;;;;;;;7.78;2.22;;;;;;;18.48;38.58;101380.34;5121775;27;20797;-68
2023/02/24 02:08:56;;;;;;;6.88;2.10;;;;;;;18.46;38.44;101369.06;5121941;28;20118;-68
2023/02/24 02:11:21;;;;;;;7.53;2.35;;;;;;;18.46;38.51;101369.91;5121456;27;20034;-68
2023/02/24 02:13:49;;;;;;;5.65;1.65;;;;;;;18.44;38.41;101363.91;5121936;28;20039;-68
2023/02/24 02:16:35;;;;;;;6.68;1.58;;;;;;;18.44;38.52;101361.25;5121776;27;20078;-68
2023/02/24 02:19:20;;;;;;;6.72;1.90;;;;;;;18.43;38.33;101345.53;5121694;28;20045;-68
2023/02/24 02:22:05;;;;;;;8.73;2.00;;;;;;;18.42;38.51;101344.72;5121376;27;20760;-68
2023/02/24 02:24:40;;;;;;;6.50;1.90;;;;;;;18.43;38.50;101343.72;5121684;27;20458;-68
2023/02/24 02:27:20;;;;;;;4.80;1.55;;;;;;;18.39;38.27;101326.47;5121609;28;20023;-67
2023/02/24 02:30:05;;;;;;;6.95;1.85;;;;;;;18.39;38.46;101328.25;5121646;27;20364;-67
2023/02/24 02:33:00;;;;;;;7.82;1.88;;;;;;;18.37;38.47;101319.59;5121449;28;20356;-67
2023/02/24 02:35:36;;;;;;;7.15;1.73;;;;;;;18.41;38.55;101331.63;5121400;28;20722;-67
2023/02/24 02:38:13;;;;;;;6.90;2.40;;;;;;;18.39;38.61;101331.75;5121456;27;20088;-67
2023/02/24 02:40:45;;;;;;;7.18;2.03;;;;;;;18.39;38.47;101326.47;5121636;27;20138;-67
2023/02/24 02:43:30;;;;;;;6.72;1.92;;;;;;;18.36;38.52;101317.91;5121426;27;20218;-68
2023/02/24 02:46:09;;;;;;;6.68;1.92;;;;;;;18.37;38.10;101322.25;5121709;28;20108;-66
2023/02/24 02:48:58;;;;;;;6.40;1.67;;;;;;;18.32;38.17;101312.03;5103067;28;20031;-68
2023/02/24 02:51:28;;;;;;;5.00;1.60;;;;;;;18.34;38.01;101306.63;5085933;28;20042;-66
2023/02/24 02:54:03;;;;;;;8.23;1.75;;;;;;;18.33;38.32;101295.25;5121430;27;20118;-68
2023/02/24 02:56:37;;;;;;;4.88;1.60;;;;;;;18.36;38.39;101302.06;5123803;27;20394;-67
2023/02/24 02:59:04;;;;;;;;;;;;;;;18.42;38.15;101298.97;5125705;27;20032;-67
2023/02/24 03:01:34;;;;;;;6.68;1.95;;;;;;;18.39;38.00;101297.44;5124894;27;19911;-68
2023/02/24 03:04:03;;;;;;;5.95;1.70;;;;;;;18.36;38.11;101305.56;5124716;27;20031;-67
2023/02/24 03:06:43;;;;;;;5.78;1.70;;;;;;;18.33;37.93;101304.97;5124605;27;20038;-66
2023/02/24 03:09:17;;;;;;;4.97;1.70;;;;;;;18.34;38.14;101306.63;5124831;27;20039;-68
2023/02/24 03:11:54;;;;;;;7.15;2.03;;;;;;;18.31;38.16;101294.53;5125035;27;20069;-67
2023/02/24 03:14:27;;;;;;;8.40;2.35;;;;;;;18.30;37.90;101298.13;5124943;27;20038;-67
2023/02/24 03:16:56;;;;;;;6.20;1.77;;;;;;;18.29;38.10;101291.16;5124527;27;20043;-66
2023/02/24 03:19:29;;;;;;;6.80;2.08;;;;;;;18.28;37.91;101286.84;5124757;27;20027;-67
2023/02/24 03:22:05;;;;;;;5.68;1.60;;;;;;;18.28;37.90;101286.84;5124109;27;20387;-66
2023/02/24 03:24:30;;;;;;;6.93;1.98;;;;;;;18.27;37.81;101280.72;5124345;27;20063;-67
2023/02/24 03:27:06;;;;;;;6.18;1.70;;;;;;;18.27;38.25;101285.97;5124890;27;20552;-67
2023/02/24 03:29:57;;;;;;;5.75;1.70;;;;;;;18.28;37.90;101286.84;5124486;27;20083;-67
2023/02/24 03:32:31;;;;;;;6.63;1.73;;;;;;;18.27;38.12;101282.50;5123969;27;20100;-67
2023/02/24 03:35:09;;;;;;;6.35;2.00;;;;;;;18.26;37.93;101275.53;5105612;27;20105;-69
2023/02/24 03:37:35;;;;;;;4.72;1.50;;;;;;;18.27;37.71;101279.88;5124411;27;20039;-68
2023/02/24 03:40:13;;;;;;;6.78;1.95;;;;;;;18.26;37.74;101273.78;5105595;27;20038;-67
2023/02/24 03:43:03;;;;;;;6.68;1.60;;;;;;;18.24;37.90;101269.56;5124277;27;20108;-67
2023/02/24 03:45:39;;;;;;;6.80;1.75;;;;;;;18.22;37.77;101264.38;5124129;27;20099;-68
2023/02/24 03:48:07;;;;;;;7.35;1.90;;;;;;;18.22;37.93;101258.28;5124235;27;20043;-67
2023/02/24 03:50:33;;;;;;;6.40;1.75;;;;;;;18.22;37.96;101251.19;5123676;27;20031;-67
2023/02/24 03:53:29;;;;;;;5.15;1.70;;;;;;;18.22;37.74;101245.09;5123692;27;20042;-67
2023/02/24 03:56:22;;;;;;;9.02;2.10;;;;;;;18.19;37.69;101242.69;5115322;27;20088;-67
2023/02/24 03:59:32;;;;;;;9.10;2.13;;;;;;;18.21;37.79;101246.03;5123751;27;20035;-68
2023/02/24 04:02:07;;;;;;;5.05;1.95;;;;;;;18.21;37.89;101246.88;5123758;27;20042;-68
2023/02/24 04:04:55;;;;;;;7.07;1.63;;;;;;;18.20;37.68;101239.06;5104795;27;20035;-68
2023/02/24 04:07:26;;;;;;;3.85;1.45;;;;;;;18.20;37.50;101245.22;5122706;27;20035;-69
2023/02/24 04:10:08;;;;;;;5.78;1.52;;;;;;;18.10;37.35;101220.47;5123621;27;20031;-68
2023/02/24 04:12:50;;;;;;;6.75;1.70;;;;;;;18.19;37.40;101232.13;5122886;27;21026;-68
2023/02/24 04:15:36;;;;;;;5.57;1.75;;;;;;;18.18;37.61;101241.00;5123837;27;20080;-68
2023/02/24 04:18:17;;;;;;;5.07;1.80;;;;;;;18.13;37.63;101226.38;5122979;27;20107;-68
2023/02/24 04:20:44;;;;;;;6.40;1.63;;;;;;;18.16;37.57;101229.72;5123274;27;20039;-68
2023/02/24 04:23:16;;;;;;;4.75;1.65;;;;;;;18.15;37.45;101223.63;5123299;27;20463;-68
2023/02/24 04:25:46;;;;;;;6.10;1.92;;;;;;;18.12;37.51;101222.03;5122966;27;20070;-68
2023/02/24 04:28:13;;;;;;;4.47;1.45;;;;;;;18.13;37.43;101225.50;5123566;27;20035;-68
2023/02/24 04:30:42;;;;;;;5.88;1.50;;;;;;;18.09;37.31;101218.78;5123400;27;20807;-68
2023/02/24 04:33:08;;;;;;;6.95;1.90;;;;;;;18.12;37.36;101222.03;5122871;27;20054;-70
2023/02/24 04:35:34;;;;;;;5.18;1.65;;;;;;;18.12;37.36;101218.56;5123257;27;20027;-68
2023/02/24 04:38:00;;;;;;;6.28;1.73;;;;;;;18.12;37.09;101215.94;5122964;27;20042;-68
2023/02/24 04:40:26;;;;;;;5.05;1.73;;;;;;;18.08;37.26;101204.75;5123447;27;20035;-68
2023/02/24 04:42:53;;;;;;;5.70;1.70;;;;;;;18.11;37.37;101215.06;5121461;27;20045;-68
2023/02/24 04:45:24;;;;;;;5.97;2.20;;;;;;;18.11;37.51;101214.25;5122667;27;20055;-68
2023/02/24 04:47:54;;;;;;;4.85;1.73;;;;;;;18.09;37.34;101211.72;5122642;27;20114;-68
2023/02/24 04:50:22;;;;;;;5.47;1.65;;;;;;;18.08;37.41;101210.03;5123154;27;20045;-68
2023/02/24 04:53:13;;;;;;;4.68;1.52;;;;;;;18.09;37.41;101202.97;5122877;27;20395;-68
2023/02/24 04:55:41;;;;;;;5.25;1.95;;;;;;;17.99;37.37;101187.00;5122632;27;20444;-67
2023/02/24 04:58:10;;;;;;;7.63;1.90;;;;;;;18.03;37.57;101196.34;5122587;27;20035;-67
2023/02/24 05:00:35;;;;;;;4.93;1.50;;;;;;;18.06;37.26;101192.66;5121901;27;20039;-67
2023/02/24 05:03:04;;;;;;;7.18;2.00;;;;;;;18.06;37.36;101205.84;5122526;27;20486;-67
2023/02/24 05:05:32;;;;;;;7.43;1.55;;;;;;;18.04;37.18;101194.53;5103803;27;20038;-68
2023/02/24 05:08:06;;;;;;;7.03;1.90;;;;;;;18.04;37.34;101195.41;5121278;27;20034;-68
2023/02/24 05:10:45;;;;;;;5.72;1.75;;;;;;;18.06;37.34;101203.19;5104303;27;20031;-68
2023/02/24 05:13:17;;;;;;;4.65;1.70;;;;;;;18.06;37.02;101195.28;5122305;27;20364;-68
2023/02/24 05:15:44;;;;;;;3.92;1.38;;;;;;;18.02;37.31;101183.28;5100261;28;20403;-68
2023/02/24 05:18:15;;;;;;;5.07;1.77;;;;;;;18.02;37.04;101173.56;5101770;28;20036;-68
2023/02/24 05:23:37;;;;;;;5.75;1.63;;;;;;;18.01;37.36;101163.13;5101495;28;20070;-68
2023/02/24 05:26:07;;;;;;;7.72;1.67;;;;;;;18.00;37.21;101159.66;5101827;28;20122;-68
2023/02/24 05:28:35;;;;;;;7.07;1.80;;;;;;;18.03;37.20;101164.69;5101517;28;20039;-68
2023/02/24 05:31:08;;;;;;;6.20;1.67;;;;;;;18.00;37.09;101159.66;5101724;28;20035;-67
2023/02/24 05:33:38;;;;;;;5.85;2.05;;;;;;;17.98;36.97;101152.84;5101509;28;20678;-68
2023/02/24 05:36:07;;;;;;;5.50;1.77;;;;;;;17.99;37.23;101154.50;5101303;28;20031;-68
2023/02/24 05:38:36;;;;;;;7.10;2.50;;;;;;;17.98;37.19;101145.75;5101467;28;20038;-68
2023/02/24 05:41:07;;;;;;;6.60;1.73;;;;;;;17.98;37.13;101150.19;5101639;28;20471;-68
2023/02/24 05:43:34;;;;;;;5.82;1.70;;;;;;;17.96;37.16;101139.75;5101028;28;20035;-68
2023/02/24 05:46:02;;;;;;;5.28;1.67;;;;;;;17.92;37.49;101128.59;5100935;28;20027;-66
2023/02/24 05:48:28;;;;;;;5.40;1.50;;;;;;;17.94;37.95;101137.25;5101230;28;20031;-67
2023/02/24 05:50:53;;;;;;;4.68;1.58;;;;;;;17.93;38.29;101142.63;5101208;28;20032;-68
2023/02/24 05:53:22;;;;;;;5.47;1.80;;;;;;;17.93;38.65;101137.34;5101466;28;20112;-69
2023/02/24 05:55:48;;;;;;;4.40;1.20;;;;;;;17.94;38.38;101129.34;5099975;28;20127;-69
2023/02/24 05:58:14;;;;;;;4.60;1.40;;;;;;;17.98;38.53;101129.94;5100706;28;20118;-68
2023/02/24 06:00:44;;;;;;;6.00;1.67;;;;;;;17.99;38.43;101118.44;5101293;28;20059;-68
2023/02/24 06:03:15;;;;;;;5.80;1.50;;;;;;;18.03;38.19;101113.75;5101673;28;20031;-66
2023/02/24 06:05:42;;;;;;;4.10;1.30;;;;;;;18.07;38.59;101102.88;5101182;28;20028;-68
2023/02/24 06:08:10;;;;;;;4.18;1.48;;;;;;;18.12;38.20;101108.63;5101197;28;20042;-67
2023/02/24 06:10:39;;;;;;;5.05;1.50;;;;;;;18.13;38.06;101099.75;5101127;28;20024;-67
2023/02/24 06:13:05;;;;;;;6.65;1.90;;;;;;;18.18;38.19;101099.38;5100772;28;20042;-66
2023/02/24 06:15:31;;;;;;;4.32;1.20;;;;;;;18.22;37.96;101095.56;5103927;28;20039;-66
2023/02/24 06:17:59;;;;;;;5.60;1.40;;;;;;;18.23;37.92;101094.59;5122049;27;20036;-66
2023/02/24 06:20:26;;;;;;;5.28;1.30;;;;;;;18.23;38.10;101085.81;5102883;28;20500;-67
2023/02/24 06:22:57;;;;;;;4.60;1.13;;;;;;;18.24;38.26;101088.34;5121771;28;20118;-67
2023/02/24 06:25:24;;;;;;;3.65;1.17;;;;;;;18.27;38.59;101093.38;5121101;28;20063;-68
2023/02/24 06:27:53;;;;;;;4.50;1.38;;;;;;;18.27;38.59;101080.19;5120299;27;20031;-68
2023/02/24 06:30:21;;;;;;;5.40;1.60;;;;;;;18.31;38.98;101083.47;5122767;27;20441;-67
2023/02/24 06:32:47;;;;;;;4.20;1.40;;;;;;;18.32;38.86;101079.84;5125757;27;20957;-68
2023/02/24 06:35:12;;;;;;;5.32;1.50;;;;;;;18.31;39.06;101072.91;5125777;27;20119;-68
2023/02/24 06:37:38;;;;;;;4.63;1.13;;;;;;;18.27;39.26;101060.91;5125442;27;20106;-67
2023/02/24 06:40:14;;;;;;;5.75;1.42;;;;;;;18.34;39.32;101070.03;5125573;27;20478;-67
2023/02/24 06:42:43;;;;;;;6.40;1.50;;;;;;;18.30;39.28;101048.31;5125336;27;21094;-66
2023/02/24 06:45:10;;;;;;;5.35;1.55;;;;;;;18.34;39.37;101054.19;5124935;27;20032;-67
2023/02/24 06:47:36;;;;;;;6.38;1.60;;;;;;;18.37;39.53;101053.91;5125288;27;20031;-67
2023/02/24 06:50:01;;;;;;;3.60;1.20;;;;;;;18.36;39.59;101046.13;5125247;27;20069;-67
2023/02/24 06:52:26;;;;;;;5.68;1.50;;;;;;;18.39;39.78;101052.03;5106609;27;20084;-67
2023/02/24 06:54:51;;;;;;;4.63;1.55;;;;;;;18.39;39.78;101057.31;5125165;27;20062;-67
2023/02/24 06:57:17;;;;;;;4.47;1.40;;;;;;;18.43;39.90;101048.16;5124717;27;20046;-66
2023/02/24 06:59:42;;;;;;;4.28;1.40;;;;;;;18.46;39.96;101047.94;5124946;27;20114;-67
2023/02/24 07:02:09;;;;;;;4.40;1.35;;;;;;;18.43;39.76;101042.06;5124685;27;20483;-67
2023/02/24 07:04:42;;;;;;;5.32;1.30;;;;;;;18.47;39.97;101043.50;5125009;27;20023;-68
2023/02/24 07:07:09;;;;;;;5.25;1.35;;;;;;;18.46;40.42;101039.19;5124921;27;20031;-69
2023/02/24 07:09:35;;;;;;;5.65;1.52;;;;;;;18.45;40.43;101035.72;5124716;27;20035;-69
2023/02/24 07:12:03;;;;;;;6.53;1.50;;;;;;;18.40;40.80;101027.28;5124432;27;20545;-69
2023/02/24 07:14:31;;;;;;;6.22;1.50;;;;;;;18.43;40.95;101032.34;5124243;27;20041;-68
2023/02/24 07:16:58;;;;;;;5.35;1.75;;;;;;;18.39;41.13;101016.88;5124680;27;20051;-68
2023/02/24 07:19:28;;;;;;;5.68;1.60;;;;;;;18.37;41.28;101024.91;5124733;27;20043;-67
2023/02/24 07:21:58;;;;;;;4.82;1.52;;;;;;;18.45;41.16;101025.16;5106460;27;20023;-67
2023/02/24 07:24:31;;;;;;;5.70;1.55;;;;;;;18.42;41.38;101011.34;5124484;27;20063;-66
2023/02/24 07:26:59;;;;;;;6.25;1.40;;;;;;;18.46;41.33;101008.34;5124451;27;20027;-65
2023/02/24 07:29:26;;;;;;;4.85;1.20;;;;;;;18.42;41.53;101009.56;5125070;27;20027;-66
2023/02/24 07:31:53;;;;;;;5.70;1.23;;;;;;;18.45;41.50;101003.19;5124821;27;20035;-67
2023/02/24 07:34:23;;;;;;;5.28;1.42;;;;;;;18.46;41.66;101015.44;5124439;27;20043;-66
2023/02/24 07:36:49;;;;;;;4.05;1.25;;;;;;;18.45;41.61;101011.97;5124217;27;20112;-66
2023/02/24 07:39:16;;;;;;;4.10;1.23;;;;;;;18.44;41.69;101012.91;5124706;27;20560;-66
2023/02/24 07:41:44;;;;;;;7.18;1.30;;;;;;;18.45;41.92;101008.47;5123120;27;20023;-67
2023/02/24 07:44:10;;;;;;;5.10;1.10;;;;;;;18.44;42.08;101007.63;5124054;27;20375;-67
2023/02/24 07:46:36;;;;;;;6.55;1.60;;;;;;;18.48;41.96;101014.34;5123974;27;20120;-67
2023/02/24 07:49:03;;;;;;;6.47;1.45;;;;;;;18.53;42.25;101021.88;5124064;27;20464;-68
2023/02/24 07:51:28;;;;;;;6.35;1.20;;;;;;;18.57;42.19;101017.22;5124237;27;20587;-66
2023/02/24 07:53:59;;;;;;;7.95;2.08;;;;;;;18.56;42.45;101007.59;5123905;27;20554;-67
2023/02/24 07:56:26;;;;;;;5.28;1.30;;;;;;;18.59;42.70;101008.19;5124055;27;20034;-67
2023/02/24 07:58:58;;;;;;;6.22;1.50;;;;;;;18.59;42.86;101000.28;5123810;27;20379;-68
2023/02/24 08:01:26;;;;;;;6.30;1.50;;;;;;;18.62;42.89;101000.03;5123882;27;20122;-66
2023/02/24 08:04:01;;;;;;;5.63;1.60;;;;;;;18.61;42.98;100990.44;5122960;27;20031;-66
2023/02/24 08:06:38;;;;;;;4.90;1.40;;;;;;;18.64;42.90;100982.28;5123825;27;20058;-66
2023/02/24 08:09:16;;;;;;;4.78;1.10;;;;;;;18.63;42.74;100969.22;5123722;27;20482;-66
2023/02/24 08:11:52;;;;;;;6.13;1.55;;;;;;;18.63;42.73;100972.69;5123881;27;20031;-67
2023/02/24 08:14:23;;;;;;;6.40;1.65;;;;;;;18.66;42.89;100977.72;5123584;27;20597;-67
2023/02/24 08:16:52;;;;;;;6.22;1.38;;;;;;;18.65;42.94;100969.91;5122553;27;20998;-66
2023/02/24 08:19:19;;;;;;;3.75;1.15;;;;;;;18.64;42.56;100960.31;5123345;27;20139;-67
2023/02/24 08:21:49;;;;;;;4.32;1.30;;;;;;;18.66;42.44;100961.88;5123451;27;20042;-67
2023/02/24 08:24:17;;;;;;;4.45;1.23;;;;;;;18.65;42.76;100956.72;5123118;27;20395;-68
2023/02/24 08:27:04;;;;;;;5.40;1.27;;;;;;;18.60;42.74;100945.69;5104823;27;20372;-68
2023/02/24 08:29:39;;;;;;;4.25;1.20;;;;;;;18.59;42.48;100952.75;5123268;27;20042;-69
2023/02/24 08:32:10;;;;;;;5.50;1.23;;;;;;;18.61;42.92;100961.41;5123503;27;20070;-70
2023/02/24 08:34:36;;;;;;;5.82;1.48;;;;;;;18.59;42.61;100954.56;5122996;27;20024;-67
2023/02/24 08:37:02;;;;;;;7.80;1.20;;;;;;;18.61;42.51;100950.00;5123068;27;20601;-67
2023/02/24 08:39:29;;;;;;;6.30;1.30;;;;;;;18.56;42.69;100937.16;5122817;27;20114;-67
2023/02/24 08:41:56;;;;;;;6.55;1.48;;;;;;;18.56;42.57;100929.25;5122955;27;20031;-66
2023/02/24 08:44:21;;;;;;;3.58;1.02;;;;;;;18.58;42.56;100935.28;5122517;27;20035;-67
2023/02/24 08:46:48;;;;;;;5.60;1.50;;;;;;;18.56;42.42;100937.16;5122822;27;20083;-67
2023/02/24 08:49:16;;;;;;;4.85;1.10;;;;;;;18.57;42.63;100935.41;5122658;27;20035;-67
2023/02/24 08:51:44;;;;;;;5.72;1.17;;;;;;;18.59;42.69;100933.47;5120538;27;20475;-66
2023/02/24 08:54:16;;;;;;;6.25;1.50;;;;;;;18.62;42.82;100935.84;5120719;27;20069;-65
2023/02/24 08:56:54;;;;;;;4.28;1.23;;;;;;;18.58;42.76;100924.72;5122142;27;20035;-67
2023/02/24 08:59:47;;;;;;;3.47;1.02;;;;;;;18.65;42.73;100923.22;5121624;27;20035;-67
2023/02/24 09:02:17;;;;;;;3.17;1.00;;;;;;;18.64;43.12;100921.56;5121960;27;20119;-69
2023/02/24 09:04:48;;;;;;;6.65;1.23;;;;;;;18.63;42.81;100897.94;5121810;27;20031;-69
2023/02/24 09:07:22;;;;;;;4.97;1.08;;;;;;;18.63;42.69;100897.94;5121336;27;20539;-68
2023/02/24 09:09:55;;;;;;;5.95;1.23;;;;;;;18.67;42.64;100892.28;5121614;27;20056;-68
2023/02/24 09:12:30;;;;;;;4.35;1.20;;;;;;;18.66;42.57;100887.97;5103175;27;20492;-68
2023/02/24 09:15:06;;;;;;;3.63;1.00;;;;;;;18.63;42.67;100884.75;5103844;27;21290;-70
2023/02/24 09:22:56;;;;;;;5.75;1.30;;;;;;;18.61;42.62;100874.31;5122385;27;20214;-69
2023/02/24 09:25:24;;;;;;;4.82;1.15;;;;;;;18.62;42.41;100857.50;5121670;27;20031;-68
2023/02/24 09:28:15;;;;;;;6.80;1.38;;;;;;;18.63;42.47;100853.91;5122043;27;20079;-69
2023/02/24 09:30:52;;;;;;;4.68;1.23;;;;;;;18.60;42.70;100848.88;5122148;27;20059;-67
2023/02/24 09:33:37;;;;;;;7.05;1.45;;;;;;;18.63;42.87;100850.44;5122354;27;20479;-68
2023/02/24 09:36:26;;;;;;;5.63;1.30;;;;;;;18.62;42.79;100852.22;5121984;27;20071;-68
2023/02/24 09:44:35;;;;;;;6.55;1.13;;;;;;;18.62;42.80;100848.75;5121864;27;20407;-69
2023/02/24 09:47:07;;;;;;;;;;;;;;;18.70;42.78;100835.72;5120089;27;20035;-66
2023/02/24 09:49:45;;;;;;;7.30;1.38;;;;;;;18.73;43.26;100840.75;5126526;27;19918;-68
2023/02/24 09:52:15;;;;;;;5.80;1.10;;;;;;;18.71;43.20;100836.56;5121318;27;20035;-66
2023/02/24 09:58:03;;;;;;;10.02;2.25;;;;;;;18.68;43.88;100812.09;5121096;28;20056;-69
2023/02/24 10:00:32;;;;;;;7.30;1.80;;;;;;;18.68;43.54;100814.75;5120930;27;20532;-69
2023/02/24 10:03:19;;;;;;;6.97;2.08;;;;;;;18.67;43.41;100821.00;5121134;28;20456;-70
2023/02/24 10:06:10;;;;;;;10.20;1.80;;;;;;;18.78;43.40;100812.16;5103776;27;20050;-67
2023/02/24 10:08:41;;;;;;;7.97;2.13;;;;;;;18.81;42.90;100801.34;5125447;27;20027;-68
2023/02/24 10:11:10;;;;;;;7.38;2.30;;;;;;;18.83;42.57;100794.16;5125136;27;21007;-65
2023/02/24 10:13:45;;;;;;;7.35;1.85;;;;;;;18.88;42.68;100799.03;5124826;27;20027;-66
2023/02/24 10:16:22;;;;;;;6.15;1.98;;;;;;;18.91;42.08;100801.41;5125525;27;20467;-66
2023/02/24 10:18:59;;;;;;;8.45;2.30;;;;;;;18.95;42.17;100810.78;5124982;27;20209;-68
2023/02/24 10:21:48;;;;;;;6.82;1.83;;;;;;;18.95;41.82;100802.84;5124652;27;20823;-66
2023/02/24 10:24:21;;;;;;;5.50;1.50;;;;;;;19.01;41.82;100802.31;5125033;27;20035;-68
2023/02/24 10:27:09;;;;;;;7.22;1.85;;;;;;;18.99;41.56;100806.91;5124770;27;20087;-66
2023/02/24 10:29:43;;;;;;;8.05;2.20;;;;;;;18.98;41.37;100801.75;5125001;27;20096;-67
2023/02/24 10:32:22;;;;;;;7.25;1.80;;;;;;;18.94;41.40;100795.06;5106182;27;20538;-67
2023/02/24 10:34:49;;;;;;;7.75;1.75;;;;;;;18.96;41.31;100791.31;5106035;27;21263;-68
2023/02/24 10:37:21;;;;;;;4.97;1.50;;;;;;;18.92;41.27;100789.06;5106252;27;20062;-68
2023/02/24 10:39:50;;;;;;;5.68;1.65;;;;;;;18.93;41.10;100788.09;5125243;27;20023;-67
2023/02/24 10:42:30;;;;;;;7.25;1.92;;;;;;;18.93;40.99;100783.66;5124995;27;20451;-69
2023/02/24 10:45:12;;;;;;;6.13;1.63;;;;;;;18.96;40.90;100779.91;5124521;27;20027;-67
2023/02/24 10:47:43;;;;;;;6.60;1.77;;;;;;;19.00;40.90;100783.97;5105893;27;20042;-66
2023/02/24 10:50:24;;;;;;;8.75;2.13;;;;;;;19.00;40.77;100776.03;5124388;27;20023;-67
2023/02/24 10:58:21;;;;;;;8.43;1.60;;;;;;;18.93;40.75;100766.97;5124357;27;20097;-71
2023/02/24 11:00:59;;;;;;;5.78;1.63;;;;;;;18.89;40.78;100761.13;5124304;27;20031;-70
2023/02/24 11:03:40;;;;;;;9.20;1.90;;;;;;;18.95;40.73;100768.50;5121589;27;20684;-69
2023/02/24 11:06:40;;;;;;;6.70;1.60;;;;;;;19.02;40.53;100764.38;5089861;27;20440;-67
2023/02/24 11:17:45;;;;;;;6.20;1.58;;;;;;;18.82;40.33;100738.84;5123767;27;20073;-71
2023/02/24 11:20:25;;;;;;;6.80;1.70;;;;;;;18.94;40.33;100726.41;5121313;27;20034;-65
2023/02/24 11:22:54;;;;;;;8.80;2.13;;;;;;;19.09;40.16;100738.28;5122935;27;20035;-67
2023/02/24 11:25:31;;;;;;;5.72;1.70;;;;;;;19.11;40.22;100731.03;5104586;27;20091;-67
2023/02/24 11:27:57;;;;;;;5.78;1.67;;;;;;;19.14;39.99;100728.13;5104212;27;20147;-68
2023/02/24 11:30:46;;;;;;;13.32;3.67;;;;;;;19.12;40.18;100718.66;5123593;27;20110;-68
2023/02/24 11:33:21;;;;;;;19.15;9.52;;;;;;;19.11;40.28;100722.28;5123977;27;20463;-66
2023/02/24 11:36:04;;;;;;;28.98;15.32;;;;;;;19.06;40.53;100709.50;5123894;27;20031;-69
2023/02/24 11:38:38;;;;;;;32.15;18.40;;;;;;;19.12;40.75;100710.75;5124309;27;20042;-67
2023/02/24 11:41:28;;;;;;;35.38;20.65;;;;;;;19.06;40.61;100716.56;5123868;27;20479;-69
2023/02/24 11:44:03;;;;;;;36.80;21.85;;;;;;;19.03;41.16;100699.19;5123621;27;20072;-67
2023/02/24 11:46:40;;;;;;;34.28;22.33;;;;;;;19.02;41.38;100697.50;5123105;27;20035;-69
2023/02/24 11:49:26;;;;;;;34.67;23.20;;;;;;;18.99;41.32;100688.06;5124326;27;20104;-69
2023/02/24 11:51:54;;;;;;;37.97;22.38;;;;;;;18.96;41.45;100685.69;5123270;27;20046;-67
2023/02/24 11:54:22;;;;;;;37.40;22.98;;;;;;;18.92;41.67;100692.19;5123279;27;20475;-68
2023/02/24 11:56:53;;;;;;;34.45;21.65;;;;;;;18.95;41.90;100680.53;5123626;27;20042;-68
2023/02/24 11:59:35;;;;;;;32.35;19.35;;;;;;;18.97;41.39;100684.69;5123939;27;20046;-68
2023/02/24 12:02:32;;;;;;;34.10;18.65;;;;;;;18.94;41.06;100684.16;5121022;27;20497;-66
2023/02/24 12:05:13;;;;;;;28.50;17.42;;;;;;;18.97;41.20;100681.25;5121394;27;20023;-68
2023/02/24 12:07:43;;;;;;;29.90;16.73;;;;;;;18.94;41.28;100676.22;5122229;27;20035;-69
2023/02/24 12:10:08;;;;;;;27.23;16.58;;;;;;;18.92;41.29;100686.09;5122073;27;20023;-68
2023/02/24 12:12:52;;;;;;;25.83;15.97;;;;;;;18.90;41.09;100674.81;5104492;27;20360;-68
2023/02/24 12:15:28;;;;;;;21.50;14.10;;;;;;;18.88;41.13;100676.75;5122064;27;20259;-67
2023/02/24 12:18:12;;;;;;;20.80;13.48;;;;;;;18.84;41.18;100670.91;5122798;27;20129;-68
2023/02/24 12:20:59;;;;;;;19.60;13.63;;;;;;;18.87;41.02;100661.88;5122708;27;20248;-70
2023/02/24 12:23:33;;;;;;;27.50;13.18;;;;;;;18.85;41.09;100662.03;5122392;27;20046;-68